createdAt,value
2023-04-19T00:00:43.705Z,4.03
2023-04-19T00:02:49.589Z,4.65
2023-04-19T00:04:53.529Z,4.32
2023-04-19T00:06:57.042Z,4.43
2023-04-19T00:08:59.757Z,4.82
2023-04-19T00:11:03.740Z,4.60
2023-04-19T00:13:06.493Z,4.47
2023-04-19T00:15:09.332Z,3.88
2023-04-19T00:17:12.376Z,5.50
2023-04-19T00:19:15.000Z,4.35
2023-04-19T00:21:17.744Z,4.60
2023-04-19T00:23:20.672Z,4.32
2023-04-19T00:25:23.242Z,3.90
2023-04-19T00:27:25.942Z,4.75
2023-04-19T00:29:28.618Z,5.53
2023-04-19T00:31:31.377Z,4.28
2023-04-19T00:33:34.148Z,4.03
2023-04-19T00:35:36.781Z,4.97
2023-04-19T00:37:39.420Z,4.07
2023-04-19T00:39:42.078Z,5.13
2023-04-19T00:41:44.673Z,4.43
2023-04-19T00:43:47.328Z,4.30
2023-04-19T00:45:50.175Z,4.40
2023-04-19T00:47:54.078Z,3.70
2023-04-19T00:49:57.032Z,3.55
2023-04-19T00:51:59.696Z,4.47
2023-04-19T00:54:05.710Z,4.70
2023-04-19T00:56:09.719Z,4.00
2023-04-19T00:58:12.373Z,4.28
2023-04-19T01:00:15.302Z,3.80
2023-04-19T01:02:18.522Z,4.25
2023-04-19T01:04:23.230Z,3.80
2023-04-19T01:06:28.002Z,3.80
2023-04-19T01:08:30.966Z,3.72
2023-04-19T01:10:33.597Z,4.03
2023-04-19T01:12:36.334Z,3.95
2023-04-19T01:14:40.571Z,3.25
2023-04-19T01:16:43.427Z,3.70
2023-04-19T01:18:46.066Z,3.70
2023-04-19T01:20:48.711Z,3.55
2023-04-19T01:22:51.402Z,3.78
2023-04-19T01:24:54.282Z,3.70
2023-04-19T01:26:56.817Z,4.50
2023-04-19T01:28:59.430Z,3.65
2023-04-19T01:31:02.114Z,3.65
2023-04-19T01:33:04.784Z,3.80
2023-04-19T01:35:07.728Z,4.55
2023-04-19T01:37:10.387Z,3.72
2023-04-19T01:39:13.050Z,4.03
2023-04-19T01:41:16.045Z,4.38
2023-04-19T01:43:19.153Z,3.92
2023-04-19T01:45:21.882Z,4.65
2023-04-19T01:47:25.209Z,4.13
2023-04-19T01:49:27.836Z,4.07
2023-04-19T01:51:30.722Z,4.20
2023-04-19T01:53:33.375Z,4.40
2023-04-19T01:55:35.939Z,3.88
2023-04-19T01:57:38.516Z,3.70
2023-04-19T01:59:41.137Z,3.75
2023-04-19T02:01:43.909Z,4.07
2023-04-19T02:03:46.841Z,3.22
2023-04-19T02:05:49.729Z,4.15
2023-04-19T02:07:52.278Z,4.15
2023-04-19T02:09:55.625Z,4.35
2023-04-19T02:11:58.501Z,3.88
2023-04-19T02:14:01.202Z,4.13
2023-04-19T02:16:06.152Z,3.47
2023-04-19T02:18:08.732Z,4.03
2023-04-19T02:20:11.512Z,4.22
2023-04-19T02:22:14.204Z,3.55
2023-04-19T02:24:17.250Z,3.35
2023-04-19T02:26:20.686Z,4.05
2023-04-19T02:28:23.411Z,3.65
2023-04-19T02:30:26.139Z,3.42
2023-04-19T02:32:28.818Z,3.95
2023-04-19T02:34:31.533Z,3.63
2023-04-19T02:36:34.127Z,3.97
2023-04-19T02:38:36.739Z,4.18
2023-04-19T02:40:39.415Z,3.70
2023-04-19T02:42:41.982Z,3.35
2023-04-19T02:44:44.579Z,4.68
2023-04-19T02:46:50.851Z,3.30
2023-04-19T02:48:53.495Z,3.13
2023-04-19T02:50:56.111Z,3.40
2023-04-19T02:52:58.945Z,3.33
2023-04-19T02:55:01.570Z,4.03
2023-04-19T02:57:05.798Z,3.83
2023-04-19T02:59:08.396Z,3.05
2023-04-19T03:01:11.258Z,3.30
2023-04-19T03:03:13.990Z,3.30
2023-04-19T03:05:16.664Z,3.92
2023-04-19T03:07:19.371Z,3.00
2023-04-19T03:09:21.922Z,3.67
2023-04-19T03:11:25.138Z,4.68
2023-04-19T03:13:27.824Z,3.85
2023-04-19T03:15:30.427Z,3.92
2023-04-19T03:17:33.130Z,3.13
2023-04-19T03:19:35.797Z,3.30
2023-04-19T03:21:38.374Z,3.78
2023-04-19T03:23:41.027Z,3.72
2023-04-19T03:25:43.644Z,2.83
2023-04-19T03:27:48.177Z,3.22
2023-04-19T03:29:50.865Z,3.30
2023-04-19T03:31:53.551Z,3.78
2023-04-19T03:33:56.125Z,3.67
2023-04-19T03:35:58.905Z,3.10
2023-04-19T03:38:01.503Z,3.47
2023-04-19T03:40:04.618Z,3.45
2023-04-19T03:42:08.004Z,3.75
2023-04-19T03:44:10.561Z,4.97
2023-04-19T03:46:13.353Z,3.28
2023-04-19T03:48:16.011Z,3.28
2023-04-19T03:50:18.727Z,3.78
2023-04-19T03:52:21.462Z,3.10
2023-04-19T03:54:24.160Z,3.03
2023-04-19T03:56:26.787Z,3.50
2023-04-19T03:58:29.354Z,3.53
2023-04-19T04:00:32.131Z,3.63
2023-04-19T04:02:38.453Z,3.53
2023-04-19T04:04:41.482Z,3.63
2023-04-19T04:06:44.476Z,3.78
2023-04-19T04:08:47.038Z,3.67
2023-04-19T04:10:49.660Z,2.85
2023-04-19T04:12:52.365Z,3.45
2023-04-19T04:14:55.011Z,3.75
2023-04-19T04:16:57.594Z,3.42
2023-04-19T04:19:00.341Z,3.60
2023-04-19T04:21:02.967Z,3.35
2023-04-19T04:23:05.483Z,3.40
2023-04-19T04:25:08.449Z,2.45
2023-04-19T04:27:11.441Z,3.78
2023-04-19T04:29:14.431Z,3.38
2023-04-19T04:31:18.429Z,2.97
2023-04-19T04:33:21.105Z,3.70
2023-04-19T04:35:23.890Z,3.33
2023-04-19T04:37:26.454Z,4.05
2023-04-19T04:39:29.879Z,2.78
2023-04-19T04:41:32.572Z,4.53
2023-04-19T04:43:35.208Z,4.20
2023-04-19T04:45:38.033Z,3.40
2023-04-19T04:47:40.942Z,3.15
2023-04-19T04:49:43.642Z,3.05
2023-04-19T04:51:46.281Z,3.40
2023-04-19T04:53:48.842Z,2.78
2023-04-19T04:55:52.979Z,2.90
2023-04-19T04:57:55.639Z,2.55
2023-04-19T04:59:58.281Z,2.92
2023-04-19T05:02:00.912Z,3.10
2023-04-19T05:04:03.654Z,2.92
2023-04-19T05:06:06.750Z,2.78
2023-04-19T05:08:09.268Z,2.63
2023-04-19T05:10:11.825Z,2.30
2023-04-19T05:12:14.663Z,3.30
2023-04-19T05:14:17.487Z,3.28
2023-04-19T05:16:21.278Z,3.30
2023-04-19T05:18:24.411Z,3.85
2023-04-19T05:20:27.038Z,3.42
2023-04-19T05:22:29.639Z,3.25
2023-04-19T05:24:32.184Z,3.90
2023-04-19T05:26:34.848Z,3.00
2023-04-19T05:28:37.372Z,2.70
2023-04-19T05:30:40.183Z,3.00
2023-04-19T05:32:42.846Z,2.72
2023-04-19T05:34:45.399Z,3.22
2023-04-19T05:36:47.954Z,3.47
2023-04-19T05:38:50.716Z,3.05
2023-04-19T05:40:53.283Z,2.58
2023-04-19T05:42:55.919Z,3.42
2023-04-19T05:44:58.474Z,2.97
2023-04-19T05:47:01.400Z,3.20
2023-04-19T05:49:03.968Z,3.10
2023-04-19T05:51:06.923Z,3.33
2023-04-19T05:53:09.602Z,3.40
2023-04-19T05:55:12.226Z,3.10
2023-04-19T05:57:14.933Z,2.60
2023-04-19T05:59:17.565Z,3.22
2023-04-19T06:01:20.266Z,3.45
2023-04-19T06:03:23.063Z,2.83
2023-04-19T06:05:26.023Z,2.47
2023-04-19T06:07:32.873Z,3.03
2023-04-19T06:09:38.370Z,2.63
2023-04-19T06:11:50.120Z,2.80
2023-04-19T06:13:53.762Z,2.80
2023-04-19T06:15:56.711Z,3.33
2023-04-19T06:18:00.098Z,2.83
2023-04-19T06:20:06.462Z,2.67
2023-04-19T06:22:09.573Z,2.85
2023-04-19T06:24:12.359Z,3.38
2023-04-19T06:26:14.967Z,3.40
2023-04-19T06:28:17.674Z,2.95
2023-04-19T06:30:20.514Z,3.22
2023-04-19T06:32:23.369Z,3.88
2023-04-19T06:34:26.362Z,2.50
2023-04-19T06:36:29.594Z,2.75
2023-04-19T06:38:32.845Z,3.10
2023-04-19T06:40:35.650Z,3.67
2023-04-19T06:42:38.485Z,3.22
2023-04-19T06:44:41.209Z,3.28
2023-04-19T06:46:44.229Z,2.70
2023-04-19T06:48:47.616Z,2.92
2023-04-19T06:50:50.865Z,3.55
2023-04-19T06:52:53.846Z,4.00
2023-04-19T06:54:56.658Z,2.78
2023-04-19T06:56:59.254Z,2.65
2023-04-19T06:59:01.935Z,2.70
2023-04-19T07:01:05.396Z,4.03
2023-04-19T07:03:08.156Z,3.40
2023-04-19T07:05:12.980Z,3.10
2023-04-19T07:07:15.811Z,2.50
2023-04-19T07:09:18.683Z,2.72
2023-04-19T07:11:22.521Z,3.15
2023-04-19T07:13:25.677Z,3.20
2023-04-19T07:15:28.858Z,3.28
2023-04-19T07:17:32.245Z,3.03
2023-04-19T07:19:36.518Z,2.80
2023-04-19T07:21:40.256Z,3.20
2023-04-19T07:23:43.450Z,3.53
2023-04-19T07:25:47.088Z,3.55
2023-04-19T07:27:50.301Z,3.13
2023-04-19T07:29:54.429Z,3.08
2023-04-19T07:31:57.141Z,2.60
2023-04-19T07:34:00.064Z,2.65
2023-04-19T07:36:02.861Z,3.25
2023-04-19T07:38:05.499Z,2.30
2023-04-19T07:40:09.144Z,2.90
2023-04-19T07:42:12.071Z,2.67
2023-04-19T07:44:14.976Z,2.40
2023-04-19T07:46:18.785Z,3.28
2023-04-19T07:48:21.711Z,2.58
2023-04-19T07:50:27.152Z,2.70
2023-04-19T07:52:29.925Z,2.30
2023-04-19T07:54:32.626Z,2.92
2023-04-19T07:56:35.297Z,2.47
2023-04-19T07:58:42.270Z,2.47
2023-04-19T08:00:46.124Z,2.67
2023-04-19T08:02:49.916Z,3.15
2023-04-19T08:04:53.650Z,2.83
2023-04-19T08:06:56.777Z,2.70
2023-04-19T08:08:59.766Z,2.20
2023-04-19T08:11:02.718Z,2.67
2023-04-19T08:13:06.746Z,2.03
2023-04-19T08:15:32.854Z,2.30
2023-04-19T08:19:38.087Z,2.60
2023-04-19T08:21:41.778Z,2.45
2023-04-19T08:23:48.348Z,2.58
2023-04-19T08:25:52.237Z,2.45
2023-04-19T08:27:55.721Z,2.60
2023-04-19T08:29:58.869Z,2.55
2023-04-19T08:32:02.852Z,2.30
2023-04-19T08:34:05.674Z,2.40
2023-04-19T08:36:08.988Z,2.83
2023-04-19T08:38:12.303Z,2.00
2023-04-19T08:40:17.518Z,2.90
2023-04-19T08:42:33.233Z,2.50
2023-04-19T08:44:49.240Z,2.72
2023-04-19T08:47:02.573Z,2.78
2023-04-19T08:49:06.293Z,2.00
2023-04-19T08:51:10.182Z,2.40
2023-04-19T08:55:19.129Z,2.05
2023-04-19T08:57:22.970Z,1.52
2023-04-19T08:59:25.776Z,2.50
2023-04-19T09:01:34.759Z,1.90
2023-04-19T09:04:00.387Z,2.25
2023-04-19T09:06:08.545Z,2.63
2023-04-19T09:08:30.250Z,2.25
2023-04-19T09:10:33.395Z,2.17
2023-04-19T09:12:37.739Z,2.38
2023-04-19T09:14:59.775Z,2.38
2023-04-19T09:17:17.034Z,1.92
2023-04-19T09:19:24.933Z,2.55
2023-04-19T09:21:30.834Z,1.83
2023-04-19T09:23:33.479Z,2.08
2023-04-19T09:25:52.891Z,2.20
2023-04-19T09:28:15.157Z,2.72
2023-04-19T09:30:31.422Z,1.73
2023-04-19T09:32:48.001Z,2.13
2023-04-19T09:34:55.636Z,1.77
2023-04-19T09:37:11.046Z,1.80
2023-04-19T09:39:33.019Z,1.40
2023-04-19T09:41:39.025Z,2.13
2023-04-19T09:45:48.010Z,2.20
2023-04-19T09:48:05.966Z,2.53
2023-04-19T09:52:16.104Z,3.50
2023-04-19T09:54:21.153Z,6.07
2023-04-19T09:56:23.778Z,4.07
2023-04-19T09:58:34.343Z,3.97
2023-04-19T10:00:50.023Z,2.60
2023-04-19T10:02:58.723Z,2.63
2023-04-19T10:05:19.658Z,2.03
2023-04-19T10:07:30.498Z,2.20
2023-04-19T10:09:42.636Z,2.20
2023-04-19T10:12:02.097Z,2.10
2023-04-19T10:14:15.451Z,3.67
2023-04-19T10:16:20.172Z,2.78
2023-04-19T10:18:23.811Z,2.30
2023-04-19T10:20:53.126Z,2.35
2023-04-19T10:22:56.394Z,2.33
2023-04-19T10:25:17.120Z,3.88
2023-04-19T10:27:25.860Z,3.83
2023-04-19T10:30:10.908Z,3.60
2023-04-19T10:32:13.954Z,2.63
2023-04-19T10:34:42.675Z,2.88
2023-04-19T10:36:45.295Z,4.28
2023-04-19T10:38:49.885Z,3.88
2023-04-19T10:40:52.966Z,2.97
2023-04-19T10:43:11.089Z,2.80
2023-04-19T10:45:33.596Z,1.70
2023-04-19T10:47:44.628Z,2.35
2023-04-19T10:49:47.296Z,2.70
2023-04-19T10:51:54.982Z,2.40
2023-04-19T10:54:08.049Z,2.30
2023-04-19T10:56:11.162Z,2.65
2023-04-19T10:58:13.758Z,2.72
2023-04-19T11:00:22.348Z,2.55
2023-04-19T11:02:25.307Z,3.63
2023-04-19T11:04:31.310Z,2.92
2023-04-19T11:06:54.361Z,2.00
2023-04-19T11:08:57.993Z,2.42
2023-04-19T11:11:00.621Z,2.00
2023-04-19T11:13:03.266Z,1.90
2023-04-19T11:15:06.948Z,2.03
2023-04-19T11:17:18.981Z,2.05
2023-04-19T11:19:21.720Z,2.38
2023-04-19T11:21:24.618Z,1.88
2023-04-19T11:23:27.736Z,1.92
2023-04-19T11:25:31.839Z,2.42
2023-04-19T11:27:34.999Z,2.50
2023-04-19T11:29:37.584Z,1.92
2023-04-19T11:31:40.472Z,2.30
2023-04-19T11:33:44.280Z,1.80
2023-04-19T11:35:46.857Z,2.30
2023-04-19T11:37:49.709Z,2.38
2023-04-19T11:39:52.249Z,2.08
2023-04-19T11:41:54.848Z,2.15
2023-04-19T11:43:57.427Z,2.50
2023-04-19T11:46:10.699Z,1.95
2023-04-19T11:48:16.468Z,1.98
2023-04-19T11:50:31.395Z,1.60
2023-04-19T11:52:35.789Z,2.65
2023-04-19T11:54:40.188Z,2.10
2023-04-19T11:57:09.456Z,1.83
2023-04-19T11:59:12.094Z,2.15
2023-04-19T12:01:16.723Z,2.28
2023-04-19T12:03:27.119Z,2.10
2023-04-19T12:05:30.652Z,2.38
2023-04-19T12:07:33.475Z,2.85
2023-04-19T12:09:37.142Z,2.60
2023-04-19T12:11:50.346Z,1.98
2023-04-19T12:14:13.318Z,3.10
2023-04-19T12:16:28.278Z,2.67
2023-04-19T12:18:49.093Z,2.25
2023-04-19T12:20:53.574Z,2.03
2023-04-19T12:22:56.406Z,2.50
2023-04-19T12:24:59.381Z,2.03
2023-04-19T12:27:03.035Z,2.42
2023-04-19T12:29:06.468Z,2.20
2023-04-19T12:31:09.380Z,2.63
2023-04-19T12:33:12.482Z,2.20
2023-04-19T12:35:15.095Z,2.38
2023-04-19T12:37:17.666Z,2.53
2023-04-19T12:39:20.326Z,1.90
2023-04-19T12:41:22.848Z,2.30
2023-04-19T12:43:25.585Z,2.50
2023-04-19T12:45:28.221Z,2.22
2023-04-19T12:47:30.899Z,1.52
2023-04-19T12:49:34.316Z,2.35
2023-04-19T12:51:36.861Z,2.63
2023-04-19T12:53:42.031Z,2.28
2023-04-19T12:55:47.642Z,2.33
2023-04-19T12:57:50.243Z,2.63
2023-04-19T12:59:53.013Z,2.50
2023-04-19T13:01:56.760Z,2.15
2023-04-19T13:03:59.949Z,2.22
2023-04-19T13:06:03.770Z,2.95
2023-04-19T13:08:06.789Z,2.30
2023-04-19T13:10:09.781Z,2.53
2023-04-19T13:12:12.651Z,2.28
2023-04-19T13:14:15.341Z,2.67
2023-04-19T13:16:18.422Z,2.97
2023-04-19T13:18:22.456Z,1.95
2023-04-19T13:20:25.069Z,2.10
2023-04-19T13:22:27.672Z,2.58
2023-04-19T13:24:30.519Z,2.03
2023-04-19T13:26:34.510Z,2.30
2023-04-19T13:28:37.297Z,2.13
2023-04-19T13:30:39.968Z,2.67
2023-04-19T13:32:42.574Z,2.45
2023-04-19T13:34:45.162Z,2.72
2023-04-19T13:36:47.859Z,2.58
2023-04-19T13:38:50.403Z,2.92
2023-04-19T13:40:53.104Z,3.17
2023-04-19T13:42:56.958Z,3.30
2023-04-19T13:44:59.506Z,2.78
2023-04-19T13:47:02.245Z,2.42
2023-04-19T13:49:04.927Z,2.53
2023-04-19T13:51:08.539Z,2.92
2023-04-19T13:53:11.164Z,1.77
2023-04-19T13:55:13.804Z,2.20
2023-04-19T13:57:16.383Z,2.03
2023-04-19T13:59:19.349Z,2.38
2023-04-19T14:01:22.220Z,2.13
2023-04-19T14:03:25.323Z,2.30
2023-04-19T14:05:27.975Z,2.30
2023-04-19T14:07:30.861Z,1.92
2023-04-19T14:09:33.438Z,2.00
2023-04-19T14:11:37.908Z,2.80
2023-04-19T14:13:41.208Z,2.58
2023-04-19T14:15:43.776Z,2.90
2023-04-19T14:17:47.301Z,2.60
2023-04-19T14:19:50.081Z,2.40
2023-04-19T14:21:52.671Z,2.00
2023-04-19T14:23:55.669Z,2.13
2023-04-19T14:25:58.346Z,2.70
2023-04-19T14:28:00.938Z,2.60
2023-04-19T14:30:03.865Z,2.35
2023-04-19T14:32:24.043Z,2.72
2023-04-19T14:34:28.552Z,3.08
2023-04-19T14:36:31.479Z,3.35
2023-04-19T14:38:35.351Z,3.08
2023-04-19T14:40:37.926Z,3.15
2023-04-19T14:42:40.709Z,2.50
2023-04-19T14:44:43.980Z,3.10
2023-04-19T14:46:46.639Z,2.40
2023-04-19T14:48:49.177Z,2.60
2023-04-19T14:50:52.005Z,2.63
2023-04-19T14:52:54.879Z,2.65
2023-04-19T14:54:58.122Z,2.53
2023-04-19T14:57:01.621Z,2.65
2023-04-19T14:59:08.085Z,2.72
2023-04-19T15:01:14.424Z,2.70
2023-04-19T15:03:17.802Z,2.83
2023-04-19T15:05:23.468Z,2.95
2023-04-19T15:07:26.540Z,2.97
2023-04-19T15:09:29.330Z,2.25
2023-04-19T15:11:32.004Z,2.72
2023-04-19T15:13:35.653Z,3.25
2023-04-19T15:15:38.362Z,2.65
2023-04-19T15:17:41.360Z,3.42
2023-04-19T15:19:47.201Z,2.90
2023-04-19T15:21:49.967Z,2.78
2023-04-19T15:23:52.702Z,2.85
2023-04-19T15:25:56.376Z,2.60
2023-04-19T15:27:58.973Z,3.20
2023-04-19T15:30:01.635Z,2.95
2023-04-19T15:32:08.318Z,2.15
2023-04-19T15:34:10.923Z,3.63
2023-04-19T15:36:13.680Z,3.17
2023-04-19T15:38:16.297Z,3.17
2023-04-19T15:40:19.070Z,2.85
2023-04-19T15:42:22.211Z,3.30
2023-04-19T15:44:24.955Z,3.08
2023-04-19T15:46:27.510Z,3.40
2023-04-19T15:48:30.223Z,3.83
2023-04-19T15:50:36.230Z,3.22
2023-04-19T15:52:38.808Z,2.75
2023-04-19T15:54:41.355Z,2.83
2023-04-19T15:56:44.025Z,3.13
2023-04-19T15:58:46.708Z,2.80
2023-04-19T16:00:49.364Z,3.17
2023-04-19T16:02:52.300Z,2.92
2023-04-19T16:04:55.163Z,2.90
2023-04-19T16:06:57.988Z,2.92
2023-04-19T16:09:00.848Z,2.80
2023-04-19T16:11:06.155Z,3.25
2023-04-19T16:13:08.951Z,3.70
2023-04-19T16:15:12.071Z,3.10
2023-04-19T16:17:14.622Z,3.45
2023-04-19T16:19:17.406Z,4.15
2023-04-19T16:21:20.207Z,3.67
2023-04-19T16:23:24.342Z,3.25
2023-04-19T16:25:27.040Z,3.38
2023-04-19T16:27:29.661Z,3.70
2023-04-19T16:29:32.233Z,3.70
2023-04-19T16:31:35.195Z,3.63
2023-04-19T16:33:37.811Z,3.67
2023-04-19T16:35:40.405Z,3.47
2023-04-19T16:37:43.146Z,3.17
2023-04-19T16:39:46.311Z,3.85
2023-04-19T16:41:48.984Z,3.58
2023-04-19T16:43:51.501Z,3.35
2023-04-19T16:45:54.100Z,4.05
2023-04-19T16:47:56.773Z,3.92
2023-04-19T16:50:00.588Z,3.70
2023-04-19T16:52:03.280Z,3.17
2023-04-19T16:54:05.883Z,3.88
2023-04-19T16:56:08.490Z,4.13
2023-04-19T16:58:11.256Z,3.67
2023-04-19T17:00:14.271Z,3.70
2023-04-19T17:02:17.308Z,3.03
2023-04-19T17:04:20.412Z,3.38
2023-04-19T17:06:23.107Z,4.57
2023-04-19T17:08:26.648Z,3.38
2023-04-19T17:10:29.330Z,4.47
2023-04-19T17:12:32.155Z,4.10
2023-04-19T17:14:35.555Z,3.70
2023-04-19T17:16:38.446Z,4.15
2023-04-19T17:18:41.105Z,3.92
2023-04-19T17:20:44.020Z,3.75
2023-04-19T17:22:46.753Z,3.63
2023-04-19T17:24:49.788Z,3.67
2023-04-19T17:26:52.399Z,3.45
2023-04-19T17:28:55.094Z,3.58
2023-04-19T17:30:57.694Z,3.15
2023-04-19T17:33:00.407Z,4.25
2023-04-19T17:35:04.596Z,3.38
2023-04-19T17:37:07.536Z,4.20
2023-04-19T17:39:10.172Z,3.70
2023-04-19T17:41:16.483Z,3.45
2023-04-19T17:43:21.025Z,3.65
2023-04-19T17:45:25.232Z,3.33
2023-04-19T17:47:27.941Z,3.33
2023-04-19T17:49:30.640Z,2.80
2023-04-19T17:51:33.376Z,3.42
2023-04-19T17:53:36.040Z,3.63
2023-04-19T17:55:38.627Z,3.70
2023-04-19T17:57:41.412Z,3.08
2023-04-19T17:59:44.397Z,4.03
2023-04-19T18:01:47.147Z,3.42
2023-04-19T18:03:50.873Z,4.35
2023-04-19T18:05:54.898Z,3.70
2023-04-19T18:07:57.950Z,3.17
2023-04-19T18:10:00.645Z,3.30
2023-04-19T18:12:07.784Z,3.30
2023-04-19T18:14:20.584Z,3.17
2023-04-19T18:16:26.301Z,4.07
2023-04-19T18:18:29.149Z,3.97
2023-04-19T18:20:31.777Z,3.90
2023-04-19T18:22:34.492Z,3.80
2023-04-19T18:24:38.348Z,3.70
2023-04-19T18:26:43.285Z,4.15
2023-04-19T18:28:46.236Z,3.67
2023-04-19T18:30:48.882Z,4.22
2023-04-19T18:32:51.745Z,3.65
2023-04-19T18:34:54.768Z,4.13
2023-04-19T18:37:02.071Z,3.53
2023-04-19T18:39:05.004Z,3.35
2023-04-19T18:41:07.725Z,3.58
2023-04-19T18:43:10.702Z,4.03
2023-04-19T18:45:13.513Z,3.45
2023-04-19T18:47:16.354Z,3.75
2023-04-19T18:49:19.395Z,3.63
2023-04-19T18:51:22.188Z,4.47
2023-04-19T18:53:29.517Z,3.45
2023-04-19T18:55:32.279Z,3.30
2023-04-19T18:57:35.267Z,3.58
2023-04-19T18:59:38.522Z,3.45
2023-04-19T19:01:42.030Z,3.97
2023-04-19T19:05:54.723Z,4.38
2023-04-19T19:07:57.935Z,4.50
2023-04-19T19:10:03.668Z,4.03
2023-04-19T19:12:13.957Z,3.67
2023-04-19T19:14:18.301Z,4.10
2023-04-19T19:16:20.989Z,3.92
2023-04-19T19:18:23.818Z,3.72
2023-04-19T19:20:26.742Z,4.05
2023-04-19T19:22:29.437Z,3.90
2023-04-19T19:24:32.201Z,3.72
2023-04-19T19:26:34.949Z,3.30
2023-04-19T19:28:37.607Z,3.55
2023-04-19T19:30:42.958Z,3.72
2023-04-19T19:32:45.814Z,4.40
2023-04-19T19:36:55.453Z,3.75
2023-04-19T19:38:58.033Z,3.90
2023-04-19T19:41:47.218Z,3.83
2023-04-19T19:43:23.363Z,4.45
2023-04-19T19:45:31.978Z,4.28
2023-04-19T19:47:35.735Z,3.88
2023-04-19T19:51:57.501Z,3.95
2023-04-19T19:54:08.780Z,4.03
2023-04-19T19:56:19.061Z,4.05
2023-04-19T19:58:46.255Z,4.00
2023-04-19T20:00:50.392Z,4.40
2023-04-19T20:02:56.662Z,3.53
2023-04-19T20:04:59.878Z,4.85
2023-04-19T20:09:08.225Z,3.85
2023-04-19T20:11:11.135Z,4.05
2023-04-19T20:13:13.682Z,4.70
2023-04-19T20:15:16.444Z,3.95
2023-04-19T20:17:19.047Z,4.65
2023-04-19T20:19:21.742Z,3.38
2023-04-19T20:21:24.364Z,4.45
2023-04-19T20:23:27.209Z,3.90
2023-04-19T20:25:32.588Z,3.97
2023-04-19T20:27:35.286Z,5.18
2023-04-19T20:29:38.350Z,4.10
2023-04-19T20:31:42.613Z,3.95
2023-04-19T20:33:47.975Z,4.45
2023-04-19T20:35:50.687Z,3.80
2023-04-19T20:37:54.703Z,4.15
2023-04-19T20:39:58.702Z,4.45
2023-04-19T20:42:01.586Z,4.25
2023-04-19T20:44:05.170Z,4.70
2023-04-19T20:46:08.552Z,4.70
2023-04-19T20:48:11.253Z,4.05
2023-04-19T20:50:13.903Z,4.30
2023-04-19T20:52:16.479Z,4.35
2023-04-19T20:54:20.092Z,4.72
2023-04-19T20:56:23.225Z,3.45
2023-04-19T20:58:25.973Z,5.18
2023-04-19T21:00:28.862Z,5.68
2023-04-19T21:02:31.800Z,4.47
2023-04-19T21:04:34.984Z,4.85
2023-04-19T21:06:37.712Z,5.35
2023-04-19T21:08:40.377Z,5.82
2023-04-19T21:10:43.067Z,6.03
2023-04-19T21:12:45.919Z,5.18
2023-04-19T21:14:50.040Z,4.90
2023-04-19T21:16:52.628Z,5.28
2023-04-19T21:18:55.368Z,5.47
2023-04-19T21:20:58.582Z,4.45
2023-04-19T21:23:02.144Z,4.15
2023-04-19T21:25:05.537Z,4.05
2023-04-19T21:27:08.115Z,3.80
2023-04-19T21:29:11.701Z,4.70
2023-04-19T21:31:14.351Z,4.63
2023-04-19T21:33:18.276Z,5.13
2023-04-19T21:35:21.053Z,5.30
2023-04-19T21:37:23.747Z,4.80
2023-04-19T21:39:26.380Z,5.03
2023-04-19T21:41:29.065Z,5.00
2023-04-19T21:43:31.771Z,5.03
2023-04-19T21:45:34.467Z,4.60
2023-04-19T21:47:37.264Z,4.65
2023-04-19T21:49:41.097Z,4.65
2023-04-19T21:51:43.733Z,5.70
2023-04-19T21:53:46.335Z,5.47
2023-04-19T21:55:52.878Z,5.43
2023-04-19T21:57:55.531Z,5.15
2023-04-19T21:59:58.398Z,4.43
2023-04-19T22:02:01.257Z,4.13
2023-04-19T22:04:04.762Z,4.68
2023-04-19T22:06:08.641Z,5.00
2023-04-19T22:08:12.170Z,4.30
2023-04-19T22:10:14.827Z,5.47
2023-04-19T22:12:17.470Z,4.60
2023-04-19T22:14:20.213Z,4.35
2023-04-19T22:16:22.871Z,4.82
2023-04-19T22:18:25.568Z,4.30
2023-04-19T22:20:28.180Z,4.40
2023-04-19T22:22:30.850Z,4.38
2023-04-19T22:26:36.422Z,4.60
2023-04-19T22:28:39.120Z,4.57
2023-04-19T22:30:41.937Z,4.15
2023-04-19T22:32:44.695Z,4.22
2023-04-19T22:34:47.250Z,4.97
2023-04-19T22:36:49.995Z,4.70
2023-04-19T22:38:52.621Z,5.28
2023-04-19T22:40:55.208Z,4.75
2023-04-19T22:42:57.830Z,5.32
2023-04-19T22:45:00.463Z,5.57
2023-04-19T22:47:03.660Z,4.78
2023-04-19T22:49:06.450Z,4.82
2023-04-19T22:51:09.641Z,4.97
2023-04-19T22:53:13.238Z,4.45
2023-04-19T22:55:15.926Z,4.40
2023-04-19T22:57:21.447Z,4.50
2023-04-19T22:59:24.038Z,5.38
2023-04-19T23:01:26.786Z,5.30
2023-04-19T23:03:29.487Z,5.53
2023-04-19T23:05:33.681Z,4.63
2023-04-19T23:07:36.406Z,4.68
2023-04-19T23:09:39.492Z,5.05
2023-04-19T23:11:42.623Z,6.07
2023-04-19T23:13:47.531Z,5.93
2023-04-19T23:15:50.460Z,6.63
2023-04-19T23:17:53.107Z,5.75
2023-04-19T23:19:55.783Z,6.60
2023-04-19T23:21:58.402Z,7.45
2023-04-19T23:24:01.121Z,6.20
2023-04-19T23:26:03.873Z,6.43
2023-04-19T23:28:06.661Z,6.10
2023-04-19T23:30:09.624Z,5.60
2023-04-19T23:32:12.298Z,5.85
2023-04-19T23:34:15.509Z,6.00
2023-04-19T23:36:18.246Z,6.38
2023-04-19T23:38:21.046Z,6.93
2023-04-19T23:40:23.695Z,6.18
2023-04-19T23:42:26.318Z,6.20
2023-04-19T23:44:30.106Z,6.32
2023-04-19T23:46:32.825Z,6.72
2023-04-19T23:48:35.462Z,6.43
2023-04-19T23:50:38.011Z,5.82
2023-04-19T23:52:40.956Z,5.75
2023-04-19T23:54:43.643Z,6.65
2023-04-19T23:56:46.975Z,6.00
2023-04-19T23:58:49.597Z,6.57
